createdAt,value
2022-08-19T00:01:32.863Z,100194.63
2022-08-19T00:04:04.550Z,100177.44
2022-08-19T00:06:30.930Z,100181.31
2022-08-19T00:08:57.317Z,100193.84
2022-08-19T00:11:26.026Z,100193.84
2022-08-19T00:13:52.802Z,100207.28
2022-08-19T00:16:19.185Z,100203.94
2022-08-19T00:18:51.937Z,100204.78
2022-08-19T00:21:18.397Z,100216.50
2022-08-19T00:23:45.705Z,100217.31
2022-08-19T00:26:12.021Z,100236.44
2022-08-19T00:28:38.326Z,100253.94
2022-08-19T00:31:04.770Z,100261.00
2022-08-19T00:33:31.299Z,100281.53
2022-08-19T00:35:59.573Z,100273.16
2022-08-19T00:38:37.267Z,100252.91
2022-08-19T00:41:03.778Z,100234.09
2022-08-19T00:43:30.106Z,100231.06
2022-08-19T00:45:56.584Z,100209.19
2022-08-19T00:48:22.965Z,100202.44
2022-08-19T00:50:52.284Z,100198.28
2022-08-19T00:53:18.846Z,100190.91
2022-08-19T00:55:45.301Z,100196.38
2022-08-19T00:58:12.197Z,100197.16
2022-08-19T01:00:38.594Z,100196.84
2022-08-19T01:03:05.499Z,100188.38
2022-08-19T01:05:32.275Z,100189.78
2022-08-19T01:07:58.866Z,100185.44
2022-08-19T01:10:25.275Z,100186.22
2022-08-19T01:12:51.957Z,100179.63
2022-08-19T01:15:18.497Z,100166.78
2022-08-19T01:17:45.072Z,100157.38
2022-08-19T01:20:11.488Z,100160.44
2022-08-19T01:22:37.882Z,100153.66
2022-08-19T01:25:06.222Z,100153.13
2022-08-19T01:27:43.917Z,100147.97
2022-08-19T01:30:10.461Z,100150.72
2022-08-19T01:32:36.842Z,100141.72
2022-08-19T01:35:03.253Z,100157.00
2022-08-19T01:37:29.674Z,100153.13
2022-08-19T01:39:56.068Z,100162.75
2022-08-19T01:42:22.618Z,100149.91
2022-08-19T01:44:56.814Z,100155.38
2022-08-19T01:47:23.176Z,100149.31
2022-08-19T01:49:49.565Z,100151.00
2022-08-19T01:52:15.955Z,100150.22
2022-08-19T01:54:42.347Z,100146.69
2022-08-19T01:57:08.759Z,100149.72
2022-08-19T01:59:35.406Z,100146.19
2022-08-19T02:02:01.797Z,100152.13
2022-08-19T02:04:28.087Z,100143.25
2022-08-19T02:06:54.482Z,100139.59
2022-08-19T02:09:21.089Z,100137.19
2022-08-19T02:11:47.513Z,100138.00
2022-08-19T02:14:13.893Z,100135.56
2022-08-19T02:16:40.422Z,100140.22
2022-08-19T02:19:06.957Z,100133.13
2022-08-19T02:21:33.287Z,100140.22
2022-08-19T02:23:59.719Z,100138.78
2022-08-19T02:26:26.046Z,100146.81
2022-08-19T02:28:52.434Z,100153.88
2022-08-19T02:31:18.771Z,100147.59
2022-08-19T02:33:45.377Z,100149.53
2022-08-19T02:36:12.018Z,100143.56
2022-08-19T02:38:38.350Z,100143.06
2022-08-19T02:41:04.720Z,100138.44
2022-08-19T02:43:32.185Z,100136.31
2022-08-19T02:46:00.734Z,100137.59
2022-08-19T02:48:27.130Z,100125.88
2022-08-19T02:50:53.789Z,100127.50
2022-08-19T02:53:20.233Z,100134.38
2022-08-19T02:55:46.548Z,100123.44
2022-08-19T02:58:12.990Z,100118.78
2022-08-19T03:00:41.606Z,100119.91
2022-08-19T03:03:08.622Z,100116.38
2022-08-19T03:05:47.938Z,100121.53
2022-08-19T03:08:21.531Z,100122.94
2022-08-19T03:10:47.971Z,100128.13
2022-08-19T03:13:14.295Z,100115.88
2022-08-19T03:15:40.569Z,100117.97
2022-08-19T03:18:06.910Z,100115.56
2022-08-19T03:20:35.066Z,100112.34
2022-08-19T03:23:01.560Z,100107.69
2022-08-19T03:25:27.945Z,100112.84
2022-08-19T03:27:54.293Z,100106.88
2022-08-19T03:30:23.328Z,100104.66
2022-08-19T03:32:53.539Z,100115.56
2022-08-19T03:35:23.745Z,100115.56
2022-08-19T03:37:50.214Z,100121.34
2022-08-19T03:40:16.794Z,100122.13
2022-08-19T03:42:59.534Z,100127.59
2022-08-19T03:45:26.002Z,100131.44
2022-08-19T03:47:55.063Z,100131.16
2022-08-19T03:50:21.386Z,100134.19
2022-08-19T03:52:47.771Z,100143.50
2022-08-19T03:55:14.220Z,100145.09
2022-08-19T03:57:40.622Z,100148.97
2022-08-19T04:00:13.590Z,100156.03
2022-08-19T04:02:40.510Z,100156.53
2022-08-19T04:05:07.383Z,100156.03
2022-08-19T04:07:33.938Z,100149.75
2022-08-19T04:10:00.329Z,100163.75
2022-08-19T04:12:27.146Z,100170.81
2022-08-19T04:14:53.646Z,100160.19
2022-08-19T04:17:19.962Z,100155.84
2022-08-19T04:19:46.490Z,100156.97
2022-08-19T04:22:12.822Z,100152.31
2022-08-19T04:24:39.171Z,100156.97
2022-08-19T04:27:05.934Z,100157.75
2022-08-19T04:29:32.250Z,100153.44
2022-08-19T04:31:58.761Z,100158.59
2022-08-19T04:34:25.261Z,100155.03
2022-08-19T04:36:51.657Z,100151.81
2022-08-19T04:39:18.251Z,100160.19
2022-08-19T04:41:44.878Z,100158.88
2022-08-19T04:44:11.226Z,100169.00
2022-08-19T04:46:37.582Z,100178.31
2022-08-19T04:49:13.166Z,100186.50
2022-08-19T04:51:40.169Z,100176.41
2022-08-19T04:54:06.610Z,100170.63
2022-08-19T04:56:32.965Z,100168.19
2022-08-19T04:58:59.302Z,100174.28
2022-08-19T05:01:25.715Z,100179.44
2022-08-19T05:03:52.098Z,100175.38
2022-08-19T05:06:18.479Z,100178.13
2022-08-19T05:08:44.827Z,100187.94
2022-08-19T05:11:11.386Z,100195.28
2022-08-19T05:13:40.581Z,100192.56
2022-08-19T05:16:08.342Z,100195.81
2022-08-19T05:18:34.650Z,100185.19
2022-08-19T05:21:00.979Z,100185.19
2022-08-19T05:23:27.463Z,100170.72
2022-08-19T05:25:53.979Z,100171.84
2022-08-19T05:28:20.504Z,100166.69
2022-08-19T05:30:47.770Z,100173.56
2022-08-19T05:33:14.086Z,100185.00
2022-08-19T05:35:40.426Z,100191.25
2022-08-19T05:38:06.814Z,100190.16
2022-08-19T05:40:33.166Z,100190.78
2022-08-19T05:42:59.501Z,100189.66
2022-08-19T05:45:25.841Z,100184.19
2022-08-19T05:47:52.168Z,100198.34
2022-08-19T05:50:18.567Z,100188.03
2022-08-19T05:52:45.955Z,100183.72
2022-08-19T05:55:17.155Z,100181.75
2022-08-19T06:00:27.751Z,100188.03
2022-08-19T06:02:54.246Z,100192.69
2022-08-19T06:05:21.564Z,100187.81
2022-08-19T06:07:48.125Z,100193.19
2022-08-19T06:10:14.682Z,100191.78
2022-08-19T06:12:41.127Z,100195.41
2022-08-19T06:15:07.665Z,100191.06
2022-08-19T06:17:34.131Z,100188.41
2022-08-19T06:20:00.804Z,100187.09
2022-08-19T06:22:27.133Z,100177.72
2022-08-19T06:24:53.838Z,100184.78
2022-08-19T06:27:20.327Z,100181.88
2022-08-19T06:29:46.788Z,100187.22
2022-08-19T06:32:13.298Z,100192.50
2022-08-19T06:34:39.689Z,100186.03
2022-08-19T06:37:06.073Z,100186.63
2022-08-19T06:39:32.464Z,100192.63
2022-08-19T06:42:00.338Z,100187.75
2022-08-19T06:44:26.710Z,100187.75
2022-08-19T06:46:55.009Z,100195.13
2022-08-19T06:49:21.550Z,100192.41
2022-08-19T06:51:47.934Z,100187.16
2022-08-19T06:54:19.028Z,100200.81
2022-08-19T06:56:46.312Z,100203.00
2022-08-19T06:59:12.604Z,100208.00
2022-08-19T07:04:22.947Z,100201.91
2022-08-19T07:06:55.013Z,100207.88
2022-08-19T07:09:22.015Z,100199.16
2022-08-19T07:11:48.554Z,100202.72
2022-08-19T07:14:19.292Z,100217.50
2022-08-19T07:16:46.138Z,100219.09
2022-08-19T07:19:16.093Z,100225.16
2022-08-19T07:21:42.786Z,100230.31
2022-08-19T07:24:09.222Z,100250.25
2022-08-19T07:26:35.658Z,100248.53
2022-08-19T07:29:02.034Z,100253.47
2022-08-19T07:31:31.069Z,100251.56
2022-08-19T07:33:57.749Z,100257.84
2022-08-19T07:36:26.170Z,100264.91
2022-08-19T07:38:52.562Z,100276.84
2022-08-19T07:41:18.873Z,100277.44
2022-08-19T07:43:46.794Z,100278.88
2022-08-19T07:46:13.161Z,100271.16
2022-08-19T07:48:39.542Z,100274.53
2022-08-19T07:51:05.935Z,100277.75
2022-08-19T07:53:35.617Z,100274.22
2022-08-19T07:56:05.572Z,100278.88
2022-08-19T07:58:31.863Z,100279.47
2022-08-19T08:00:58.333Z,100277.03
2022-08-19T08:03:24.766Z,100280.66
2022-08-19T08:05:51.237Z,100282.72
2022-08-19T08:08:18.064Z,100284.31
2022-08-19T08:10:44.478Z,100284.81
2022-08-19T08:13:19.555Z,100282.09
2022-08-19T08:15:45.870Z,100284.81
2022-08-19T08:18:12.307Z,100281.06
2022-08-19T08:20:38.736Z,100294.41
2022-08-19T08:23:05.328Z,100292.31
2022-08-19T08:25:32.492Z,100293.94
2022-08-19T08:28:00.705Z,100290.59
2022-08-19T08:30:27.174Z,100284.09
2022-08-19T08:32:57.848Z,100293.00
2022-08-19T08:35:25.764Z,100289.97
2022-08-19T08:37:52.638Z,100292.72
2022-08-19T08:40:19.189Z,100293.00
2022-08-19T08:42:45.659Z,100285.63
2022-08-19T08:48:02.058Z,100307.47
2022-08-19T08:50:28.588Z,100303.03
2022-08-19T08:52:55.276Z,100301.31
2022-08-19T08:55:21.922Z,100307.19
2022-08-19T08:57:48.266Z,100310.22
2022-08-19T09:00:15.390Z,100304.94
2022-08-19T09:02:43.344Z,100306.78
2022-08-19T09:05:10.423Z,100301.72
2022-08-19T09:07:46.872Z,100307.38
2022-08-19T09:10:13.678Z,100306.13
2022-08-19T09:12:40.307Z,100309.28
2022-08-19T09:15:09.358Z,100304.13
2022-08-19T09:17:36.403Z,100305.66
2022-08-19T09:20:02.930Z,100308.38
2022-08-19T09:22:29.297Z,100302.91
2022-08-19T09:24:55.792Z,100316.28
2022-08-19T09:27:22.438Z,100306.44
2022-08-19T09:30:09.080Z,100309.50
2022-08-19T09:32:35.464Z,100308.56
2022-08-19T09:35:01.838Z,100305.53
2022-08-19T09:37:30.153Z,100305.22
2022-08-19T09:39:56.516Z,100311.81
2022-08-19T09:42:30.039Z,100306.66
2022-08-19T09:44:57.089Z,100303.41
2022-08-19T09:47:26.922Z,100301.69
2022-08-19T09:52:55.520Z,100311.50
2022-08-19T09:55:24.088Z,100308.28
2022-08-19T09:57:50.577Z,100305.84
2022-08-19T10:00:16.880Z,100303.28
2022-08-19T10:02:43.337Z,100307.16
2022-08-19T10:05:11.975Z,100311.00
2022-08-19T10:07:38.421Z,100315.34
2022-08-19T10:10:04.791Z,100300.06
2022-08-19T10:12:31.137Z,100309.09
2022-08-19T10:14:57.483Z,100308.28
2022-08-19T10:17:26.760Z,100297.84
2022-08-19T10:19:55.505Z,100296.84
2022-08-19T10:22:22.384Z,100298.94
2022-08-19T10:24:48.764Z,100308.28
2022-08-19T10:27:15.221Z,100314.84
2022-08-19T10:29:46.472Z,100311.59
2022-08-19T10:32:13.061Z,100306.66
2022-08-19T10:34:48.817Z,100306.03
2022-08-19T10:37:15.785Z,100312.31
2022-08-19T10:39:55.172Z,100304.94
2022-08-19T10:42:22.158Z,100313.91
2022-08-19T10:44:48.530Z,100318.38
2022-08-19T10:47:17.370Z,100328.22
2022-08-19T10:49:51.698Z,100322.75
2022-08-19T10:52:18.945Z,100325.16
2022-08-19T10:54:47.752Z,100327.88
2022-08-19T10:57:14.274Z,100332.03
2022-08-19T10:59:41.938Z,100325.84
2022-08-19T11:02:08.302Z,100316.47
2022-08-19T11:04:35.743Z,100326.28
2022-08-19T11:07:02.362Z,100332.84
2022-08-19T11:09:34.036Z,100346.50
2022-08-19T11:12:02.975Z,100353.09
2022-08-19T11:14:31.425Z,100356.31
2022-08-19T11:17:00.641Z,100357.94
2022-08-19T11:19:27.265Z,100353.59
2022-08-19T11:24:38.181Z,100366.75
2022-08-19T11:27:04.816Z,100369.38
2022-08-19T11:29:31.173Z,100376.56
2022-08-19T11:31:57.542Z,100366.53
2022-08-19T11:34:23.914Z,100370.28
2022-08-19T11:36:50.278Z,100371.81
2022-08-19T11:39:16.643Z,100374.53
2022-08-19T11:41:43.018Z,100378.28
2022-08-19T11:44:09.504Z,100370.09
2022-08-19T11:46:35.766Z,100379.41
2022-08-19T11:49:02.182Z,100382.63
2022-08-19T11:51:28.527Z,100386.47
2022-08-19T11:53:54.892Z,100391.94
2022-08-19T11:56:21.590Z,100388.09
2022-08-19T11:58:48.016Z,100387.78
2022-08-19T12:01:14.419Z,100395.97
2022-08-19T12:03:40.810Z,100396.81
2022-08-19T12:06:07.316Z,100402.25
2022-08-19T12:08:33.771Z,100404.69
2022-08-19T12:11:03.127Z,100401.63
2022-08-19T12:16:13.765Z,100407.91
2022-08-19T12:18:43.223Z,100406.00
2022-08-19T12:21:09.624Z,100412.56
2022-08-19T12:23:36.222Z,100409.03
2022-08-19T12:26:02.655Z,100411.78
2022-08-19T12:28:28.948Z,100412.56
2022-08-19T12:30:55.273Z,100414.50
2022-08-19T12:33:21.681Z,100419.97
2022-08-19T12:35:48.310Z,100415.63
2022-08-19T12:38:14.679Z,100420.28
2022-08-19T12:40:41.024Z,100415.91
2022-08-19T12:43:07.666Z,100420.28
2022-08-19T12:45:34.241Z,100409.34
2022-08-19T12:48:01.269Z,100420.75
2022-08-19T12:50:47.611Z,100413.69
2022-08-19T12:53:13.981Z,100421.88
2022-08-19T12:55:40.382Z,100423.50
2022-08-19T12:58:06.832Z,100418.03
2022-08-19T13:00:33.186Z,100421.59
2022-08-19T13:02:59.603Z,100421.88
2022-08-19T13:05:25.951Z,100430.59
2022-08-19T13:07:52.367Z,100427.88
2022-08-19T13:10:18.712Z,100423.50
2022-08-19T13:12:45.030Z,100428.97
2022-08-19T13:15:11.721Z,100428.16
2022-08-19T13:17:38.018Z,100425.44
2022-08-19T13:20:04.451Z,100432.00
2022-08-19T13:22:30.853Z,100428.97
2022-08-19T13:24:57.170Z,100421.88
2022-08-19T13:27:23.570Z,100423.00
2022-08-19T13:29:49.986Z,100425.72
2022-08-19T13:32:18.633Z,100425.72
2022-08-19T13:34:45.207Z,100435.53
2022-08-19T13:37:11.601Z,100438.28
2022-08-19T13:39:37.981Z,100442.13
2022-08-19T13:42:04.378Z,100449.19
2022-08-19T13:44:31.083Z,100443.72
2022-08-19T13:46:57.741Z,100439.69
2022-08-19T13:49:24.166Z,100437.78
2022-08-19T13:51:50.546Z,100442.94
2022-08-19T13:54:17.011Z,100446.75
2022-08-19T13:56:43.671Z,100443.72
2022-08-19T13:59:10.322Z,100440.50
2022-08-19T14:01:36.634Z,100435.84
2022-08-19T14:04:03.055Z,100428.97
2022-08-19T14:06:29.409Z,100425.72
2022-08-19T14:08:55.822Z,100427.34
2022-08-19T14:11:22.214Z,100426.22
2022-08-19T14:13:48.520Z,100425.13
2022-08-19T14:16:14.872Z,100423.50
2022-08-19T14:18:41.159Z,100424.59
2022-08-19T14:21:07.587Z,100420.75
2022-08-19T14:23:33.945Z,100425.13
2022-08-19T14:26:03.372Z,100425.13
2022-08-19T14:28:30.010Z,100421.28
2022-08-19T14:30:56.680Z,100421.59
2022-08-19T14:33:23.136Z,100427.88
2022-08-19T14:35:59.685Z,100436.06
2022-08-19T14:38:31.412Z,100436.06
2022-08-19T14:40:58.191Z,100441.53
2022-08-19T14:43:24.602Z,100440.69
2022-08-19T14:45:51.038Z,100436.06
2022-08-19T14:48:19.463Z,100440.69
2022-08-19T14:50:46.678Z,100452.44
2022-08-19T14:53:13.035Z,100450.03
2022-08-19T14:55:39.502Z,100457.38
2022-08-19T14:58:08.885Z,100467.19
2022-08-19T15:00:36.835Z,100457.38
2022-08-19T15:03:03.296Z,100455.78
2022-08-19T15:05:29.616Z,100467.00
2022-08-19T15:07:56.084Z,100463.97
2022-08-19T15:10:22.575Z,100459.63
2022-08-19T15:12:51.703Z,100461.25
2022-08-19T15:15:21.412Z,100465.88
2022-08-19T15:17:47.739Z,100461.25
2022-08-19T15:20:14.077Z,100458.03
2022-08-19T15:22:40.489Z,100460.75
2022-08-19T15:25:06.827Z,100459.09
2022-08-19T15:27:33.487Z,100461.53
2022-08-19T15:30:01.580Z,100469.72
2022-08-19T15:32:28.172Z,100459.09
2022-08-19T15:34:59.503Z,100459.09
2022-08-19T15:37:25.961Z,100462.13
2022-08-19T15:39:52.420Z,100458.31
2022-08-19T15:42:28.142Z,100463.25
2022-08-19T15:44:56.627Z,100463.78
2022-08-19T15:47:26.999Z,100469.25
2022-08-19T15:50:01.149Z,100468.41
2022-08-19T15:52:27.922Z,100467.59
2022-08-19T15:54:54.286Z,100467.31
2022-08-19T15:57:20.736Z,100469.53
2022-08-19T16:02:37.435Z,100481.25
2022-08-19T16:05:03.802Z,100488.66
2022-08-19T16:07:30.182Z,100473.38
2022-08-19T16:09:56.668Z,100469.53
2022-08-19T16:12:23.090Z,100472.28
2022-08-19T16:14:49.741Z,100458.09
2022-08-19T16:17:16.180Z,100449.09
2022-08-19T16:19:42.510Z,100443.63
2022-08-19T16:22:08.955Z,100449.88
2022-08-19T16:24:35.306Z,100444.72
2022-08-19T16:27:01.993Z,100453.75
2022-08-19T16:29:34.164Z,100442.81
2022-08-19T16:32:05.666Z,100436.53
2022-08-19T16:34:32.039Z,100437.34
2022-08-19T16:37:00.019Z,100436.53
2022-08-19T16:39:26.399Z,100442.00
2022-08-19T16:41:52.870Z,100447.47
2022-08-19T16:44:19.409Z,100448.28
2022-08-19T16:46:45.930Z,100458.72
2022-08-19T16:49:20.970Z,100459.50
2022-08-19T16:52:03.674Z,100462.22
2022-08-19T16:54:32.578Z,100466.09
2022-08-19T16:56:59.406Z,100471.25
2022-08-19T16:59:25.810Z,100474.28
2022-08-19T17:01:52.233Z,100484.09
2022-08-19T17:04:18.637Z,100484.09
2022-08-19T17:06:45.058Z,100481.34
2022-08-19T17:09:11.569Z,100484.09
2022-08-19T17:11:37.853Z,100486.03
2022-08-19T17:14:04.299Z,100492.28
2022-08-19T17:16:30.653Z,100489.84
2022-08-19T17:18:56.966Z,100486.03
2022-08-19T17:21:23.634Z,100489.84
2022-08-19T17:23:50.021Z,100487.34
2022-08-19T17:26:18.170Z,100492.50
2022-08-19T17:28:44.943Z,100495.53
2022-08-19T17:31:11.395Z,100491.16
2022-08-19T17:33:41.142Z,100498.56
2022-08-19T17:36:07.790Z,100491.47
2022-08-19T17:38:34.298Z,100499.97
2022-08-19T17:41:00.833Z,100501.59
2022-08-19T17:43:32.764Z,100498.56
2022-08-19T17:46:00.514Z,100498.25
2022-08-19T17:48:26.891Z,100492.50
2022-08-19T17:50:53.230Z,100492.56
2022-08-19T17:53:21.058Z,100501.38
2022-08-19T17:55:48.041Z,100494.28
2022-08-19T17:58:14.597Z,100498.13
2022-08-19T18:00:53.871Z,100507.44
2022-08-19T18:03:21.409Z,100498.13
2022-08-19T18:05:47.940Z,100496.81
2022-08-19T18:08:14.381Z,100504.81
2022-08-19T18:10:40.702Z,100510.75
2022-08-19T18:15:57.773Z,100512.16
2022-08-19T18:18:24.206Z,100518.47
2022-08-19T18:20:50.604Z,100510.25
2022-08-19T18:23:43.804Z,100507.81
2022-08-19T18:26:03.665Z,100500.47
2022-08-19T18:28:30.100Z,100498.31
2022-08-19T18:30:56.723Z,100497.78
2022-08-19T18:33:23.231Z,100503.78
2022-08-19T18:35:49.565Z,100512.25
2022-08-19T18:38:16.082Z,100518.56
2022-08-19T18:40:42.449Z,100534.94
2022-08-19T18:43:10.640Z,100533.81
2022-08-19T18:45:37.022Z,100544.75
2022-08-19T18:48:04.945Z,100545.03
2022-08-19T18:50:31.285Z,100545.31
2022-08-19T18:52:57.670Z,100544.22
2022-08-19T18:55:24.743Z,100541.19
2022-08-19T18:57:51.126Z,100545.84
2022-08-19T19:00:18.954Z,100556.78
2022-08-19T19:02:45.424Z,100563.66
2022-08-19T19:05:11.901Z,100569.59
2022-08-19T19:07:38.914Z,100573.44
2022-08-19T19:10:05.295Z,100569.91
2022-08-19T19:12:31.671Z,100558.97
2022-08-19T19:14:57.949Z,100553.03
2022-08-19T19:17:24.337Z,100563.13
2022-08-19T19:19:50.923Z,100571.84
2022-08-19T19:22:17.295Z,100578.38
2022-08-19T19:24:43.674Z,100578.09
2022-08-19T19:27:10.130Z,100576.78
2022-08-19T19:29:36.471Z,100574.25
2022-08-19T19:32:02.796Z,100570.19
2022-08-19T19:34:30.221Z,100567.47
2022-08-19T19:36:57.062Z,100579.22
2022-08-19T19:39:42.946Z,100575.94
2022-08-19T19:44:53.834Z,100587.91
2022-08-19T19:47:20.597Z,100587.09
2022-08-19T19:50:10.577Z,100589.53
2022-08-19T19:52:33.372Z,100590.41
2022-08-19T19:54:59.758Z,100583.63
2022-08-19T19:57:26.221Z,100575.16
2022-08-19T19:59:52.855Z,100584.66
2022-08-19T20:02:19.342Z,100584.66
2022-08-19T20:04:45.699Z,100573.81
2022-08-19T20:07:12.229Z,100574.88
2022-08-19T20:09:58.349Z,100557.34
2022-08-19T20:12:24.933Z,100559.56
2022-08-19T20:14:51.477Z,100564.22
2022-08-19T20:17:18.125Z,100563.69
2022-08-19T20:19:44.515Z,100556.34
2022-08-19T20:22:10.922Z,100561.25
2022-08-19T20:24:37.415Z,100568.88
2022-08-19T20:27:03.756Z,100571.69
2022-08-19T20:29:39.628Z,100569.44
2022-08-19T20:32:08.221Z,100554.09
2022-08-19T20:34:34.600Z,100557.44
2022-08-19T20:37:01.043Z,100564.72
2022-08-19T20:39:27.671Z,100561.78
2022-08-19T20:41:54.055Z,100565.34
2022-08-19T20:44:20.454Z,100573.28
2022-08-19T20:46:54.527Z,100585.03
2022-08-19T20:49:22.623Z,100586.94
2022-08-19T20:54:37.483Z,100566.72
2022-08-19T20:57:03.894Z,100567.75
2022-08-19T20:59:30.321Z,100566.72
2022-08-19T21:01:56.627Z,100568.66
2022-08-19T21:04:22.958Z,100567.25
2022-08-19T21:06:49.625Z,100570.06
2022-08-19T21:09:16.653Z,100573.59
2022-08-19T21:11:44.036Z,100567.34
2022-08-19T21:14:10.431Z,100562.38
2022-08-19T21:16:36.862Z,100571.19
2022-08-19T21:19:03.187Z,100580.69
2022-08-19T21:21:29.530Z,100598.41
2022-08-19T21:23:55.850Z,100597.38
2022-08-19T21:26:22.233Z,100604.22
2022-08-19T21:28:48.666Z,100616.47
2022-08-19T21:31:15.102Z,100624.38
2022-08-19T21:33:41.534Z,100626.88
2022-08-19T21:36:07.871Z,100634.25
2022-08-19T21:38:34.234Z,100632.13
2022-08-19T21:41:01.333Z,100630.22
2022-08-19T21:43:32.185Z,100629.88
2022-08-19T21:45:58.680Z,100637.78
2022-08-19T21:48:25.050Z,100637.56
2022-08-19T21:50:51.579Z,100618.19
2022-08-19T21:53:17.923Z,100618.69
2022-08-19T21:55:44.341Z,100611.88
2022-08-19T21:58:10.729Z,100604.22
2022-08-19T22:00:37.487Z,100591.38
2022-08-19T22:03:05.383Z,100583.28
2022-08-19T22:05:31.846Z,100590.88
2022-08-19T22:07:58.495Z,100595.50
2022-08-19T22:10:29.194Z,100601.25
2022-08-19T22:12:55.671Z,100586.81
2022-08-19T22:15:22.903Z,100586.00
2022-08-19T22:17:49.384Z,100584.38
2022-08-19T22:20:15.875Z,100568.22
2022-08-19T22:22:42.259Z,100565.78
2022-08-19T22:25:08.545Z,100559.22
2022-08-19T22:27:34.912Z,100570.44
2022-08-19T22:30:01.601Z,100560.63
2022-08-19T22:32:30.394Z,100551.91
2022-08-19T22:34:57.817Z,100553.53
2022-08-19T22:37:24.178Z,100545.34
2022-08-19T22:39:50.661Z,100541.53
2022-08-19T22:42:17.381Z,100546.16
2022-08-19T22:44:44.001Z,100547.78
2022-08-19T22:47:10.333Z,100551.63
2022-08-19T22:49:36.865Z,100554.34
2022-08-19T22:52:03.174Z,100539.09
2022-08-19T22:54:29.515Z,100543.94
2022-08-19T22:56:55.946Z,100553.78
2022-08-19T22:59:22.390Z,100559.81
2022-08-19T23:01:48.756Z,100559.00
2022-08-19T23:04:15.086Z,100562.53
2022-08-19T23:06:42.200Z,100569.13
2022-08-19T23:09:08.761Z,100568.81
2022-08-19T23:11:35.193Z,100574.28
2022-08-19T23:14:01.845Z,100571.03
2022-08-19T23:16:28.197Z,100569.31
2022-08-19T23:18:56.122Z,100575.06
2022-08-19T23:21:22.565Z,100570.19
2022-08-19T23:23:48.983Z,100575.66
2022-08-19T23:26:15.372Z,100584.69
2022-08-19T23:28:41.713Z,100580.84
2022-08-19T23:31:08.027Z,100579.22
2022-08-19T23:33:51.634Z,100573.75
2022-08-19T23:36:18.297Z,100575.16
2022-08-19T23:38:44.682Z,100571.31
2022-08-19T23:41:11.055Z,100568.59
2022-08-19T23:43:37.351Z,100564.25
2022-08-19T23:46:10.524Z,100569.97
2022-08-19T23:48:37.118Z,100578.97
2022-08-19T23:51:03.626Z,100590.41
2022-08-19T23:53:30.026Z,100589.88
2022-08-19T23:55:56.566Z,100588.81
2022-08-19T23:58:22.982Z,100587.16
